PILOTS ONLINE: 230    ATC ONLINE: 37

SBUG - Rubem Berta Airport

Location

IATA URG
City Uruguaiana
Country  Brazil
Latitude 29° 46' 55" S
Longitude 57° 2' 17" W
Elevation 256 ft
Type Medium Airport

Runways

4/22 2625 ft / 164 ft
9/27 4921 ft / 98 ft

Weather

METAR
2014/07/22 22:00
SBUG 222200Z 11005KT 8000 TS SCT022 FEW030CB BKN073 17/15 Q1007 
TAF
2014/07/23 06:57
TAF SBUG 222330Z 2306/2406 02010KT BKN020 TX15/2315Z TN09/2406Z 
      TEMPO 2306/2320 20012KT 3000 RADZ BR BKN010 BKN020 
      RMK PEL

Outbound flights

Inbound flights